Time;durP1;ratioP1;P1;durP2;ratioP2;P2;SDS_P1;SDS_P2;PMS_P1;PMS_P2;Temp;Humidity;BMP_temperature;BMP_pressure;BME280_temperature;BME280_humidity;BME280_pressure;Samples;Min_cycle;Max_cycle;Signal;HPM_P1;HPM_P2
2022/10/15 00:01:20;;;;;;;;;;;22.50;57.70;;;;;;1583043;74;1931;-56
2022/10/15 00:03:22;;;;;;;;;;;22.60;57.60;;;;;;1582019;74;693;-55
2022/10/15 00:05:24;;;;;;;;;;;22.50;57.70;;;;;;1577288;74;1132;-58
2022/10/15 00:07:27;;;;;;;;;;;22.60;57.70;;;;;;1580122;74;776;-56
2022/10/15 00:09:29;;;;;;;;;;;22.60;57.50;;;;;;1586088;74;806;-57
2022/10/15 00:11:31;;;;;;;;;;;22.60;57.60;;;;;;1576755;74;733;-57
2022/10/15 00:13:33;;;;;;;;;;;22.70;57.50;;;;;;1572237;74;803;-57
2022/10/15 00:15:38;;;;;;;;;;;22.70;57.60;;;;;;1582361;74;1115;-56
2022/10/15 00:17:40;;;;;;;;;;;22.70;57.50;;;;;;1589576;74;769;-51
2022/10/15 00:19:41;;;;;;;;;;;22.70;57.30;;;;;;1564796;74;664;-56
2022/10/15 00:21:43;;;;;;;;;;;22.70;57.10;;;;;;1571799;74;1927;-56
2022/10/15 00:23:45;;;;;;;;;;;22.70;57.20;;;;;;1577288;74;819;-52
2022/10/15 00:25:47;;;;;;;;;;;22.60;57.30;;;;;;1580846;74;1183;-55
2022/10/15 00:27:49;;;;;;;;;;;22.70;57.50;;;;;;1566539;74;704;-57
2022/10/15 00:29:51;;;;;;;;;;;22.70;57.60;;;;;;1567964;74;745;-55
2022/10/15 00:31:53;;;;;;;;;;;22.60;57.40;;;;;;1582352;74;748;-56
2022/10/15 00:33:56;;;;;;;;;;;22.60;57.50;;;;;;1581028;74;781;-56
2022/10/15 00:36:01;;;;;;;;;;;22.60;57.50;;;;;;1564895;74;1159;-53
2022/10/15 00:38:03;;;;;;;;;;;22.60;57.60;;;;;;1566595;74;733;-56
2022/10/15 00:40:07;;;;;;;;;;;22.60;57.50;;;;;;1584473;74;756;-56
2022/10/15 00:42:09;;;;;;;;;;;22.60;57.50;;;;;;1573443;74;1092;-52
2022/10/15 00:44:22;;;;;;;;;;;22.60;57.60;;;;;;1583825;74;732;-56
2022/10/15 00:46:25;;;;;;;;;;;22.50;57.70;;;;;;1582274;74;1198;-55
2022/10/15 00:48:27;;;;;;;;;;;22.50;57.70;;;;;;1570254;74;716;-51
2022/10/15 00:50:29;;;;;;;;;;;22.50;57.80;;;;;;1587408;74;797;-53
2022/10/15 00:52:35;;;;;;;;;;;22.50;57.90;;;;;;1570947;74;772;-57
2022/10/15 00:54:39;;;;;;;;;;;22.50;57.90;;;;;;1582897;74;1753;-57
2022/10/15 00:56:41;;;;;;;;;;;22.50;57.90;;;;;;1584585;73;1606;-57
2022/10/15 00:58:43;;;;;;;;;;;22.50;57.90;;;;;;1576034;74;711;-56
2022/10/15 01:00:45;;;;;;;;;;;22.50;57.90;;;;;;1583706;74;1944;-56
2022/10/15 01:02:47;;;;;;;;;;;22.50;57.90;;;;;;1573070;74;691;-52
2022/10/15 01:04:48;;;;;;;;;;;22.60;57.90;;;;;;1589440;74;1128;-53
2022/10/15 01:06:50;;;;;;;;;;;22.50;57.90;;;;;;1587519;74;725;-51
2022/10/15 01:08:52;;;;;;;;;;;22.60;58.00;;;;;;1585572;74;761;-57
2022/10/15 01:11:01;;;;;;;;;;;22.50;57.80;;;;;;1570651;74;673;-56
2022/10/15 01:13:14;;;;;;;;;;;22.60;57.80;;;;;;1575228;74;709;-54
2022/10/15 01:15:18;;;;;;;;;;;22.60;57.90;;;;;;1590683;74;1798;-56
2022/10/15 01:17:20;;;;;;;;;;;22.60;57.80;;;;;;1580804;74;697;-53
2022/10/15 01:19:36;;;;;;;;;;;22.60;57.80;;;;;;1590643;74;790;-56
2022/10/15 01:21:39;;;;;;;;;;;22.50;57.80;;;;;;1575349;74;1942;-54
2022/10/15 01:23:58;;;;;;;;;;;22.50;57.80;;;;;;1575178;74;746;-56
2022/10/15 01:26:20;;;;;;;;;;;22.50;58.00;;;;;;1572592;74;1126;-55
2022/10/15 01:28:42;;;;;;;;;;;22.50;58.00;;;;;;1580098;74;706;-56
2022/10/15 01:30:48;;;;;;;;;;;22.50;58.10;;;;;;1580260;74;795;-53
2022/10/15 01:32:54;;;;;;;;;;;22.50;58.10;;;;;;1585392;74;832;-57
2022/10/15 01:35:07;;;;;;;;;;;22.50;58.30;;;;;;1589023;74;1155;-56
2022/10/15 01:37:10;;;;;;;;;;;22.50;58.30;;;;;;1580834;74;1393;-56
2022/10/15 01:39:14;;;;;;;;;;;22.50;58.20;;;;;;1591534;74;738;-57
2022/10/15 01:41:18;;;;;;;;;;;22.50;58.30;;;;;;1579887;74;1938;-54
2022/10/15 01:43:24;;;;;;;;;;;22.50;58.30;;;;;;1586001;74;697;-51
2022/10/15 01:45:31;;;;;;;;;;;22.50;58.20;;;;;;1577912;74;1926;-55
2022/10/15 01:47:37;;;;;;;;;;;22.50;58.10;;;;;;1585251;74;733;-56
2022/10/15 01:49:40;;;;;;;;;;;22.50;58.10;;;;;;1582177;74;1921;-57
2022/10/15 01:51:42;;;;;;;;;;;22.50;58.20;;;;;;1573910;74;762;-52
2022/10/15 01:53:44;;;;;;;;;;;22.50;58.30;;;;;;1576888;74;762;-57
2022/10/15 01:55:46;;;;;;;;;;;22.50;58.30;;;;;;1585205;74;1138;-56
2022/10/15 01:57:48;;;;;;;;;;;22.50;58.40;;;;;;1585034;74;742;-56
2022/10/15 01:59:50;;;;;;;;;;;22.50;58.40;;;;;;1581098;74;797;-56
2022/10/15 02:01:52;;;;;;;;;;;22.50;58.40;;;;;;1573270;74;1893;-56
2022/10/15 02:03:54;;;;;;;;;;;22.50;58.40;;;;;;1576353;74;780;-57
2022/10/15 02:06:06;;;;;;;;;;;22.50;58.40;;;;;;1579044;74;1171;-56
2022/10/15 02:08:15;;;;;;;;;;;22.50;58.40;;;;;;1579356;74;771;-54
2022/10/15 02:10:22;;;;;;;;;;;22.50;58.50;;;;;;1580518;74;1027;-57
2022/10/15 02:12:28;;;;;;;;;;;22.50;58.50;;;;;;1574997;74;697;-56
2022/10/15 02:14:37;;;;;;;;;;;22.40;58.40;;;;;;1582231;74;688;-56
2022/10/15 02:16:47;;;;;;;;;;;22.40;58.30;;;;;;1580496;74;1815;-56
2022/10/15 02:19:09;;;;;;;;;;;22.40;58.40;;;;;;1591440;74;759;-56
2022/10/15 02:21:18;;;;;;;;;;;22.40;58.40;;;;;;1585255;74;1940;-54
2022/10/15 02:23:21;;;;;;;;;;;22.40;58.40;;;;;;1592487;74;751;-56
2022/10/15 02:25:23;;;;;;;;;;;22.40;58.40;;;;;;1593073;74;1175;-56
2022/10/15 02:27:25;;;;;;;;;;;22.40;58.50;;;;;;1567501;74;719;-56
2022/10/15 02:29:28;;;;;;;;;;;22.50;58.60;;;;;;1580011;74;736;-54
2022/10/15 02:31:30;;;;;;;;;;;22.50;58.60;;;;;;1581018;74;722;-57
2022/10/15 02:33:32;;;;;;;;;;;22.50;58.40;;;;;;1537178;76;891;-56
2022/10/15 02:35:34;;;;;;;;;;;22.60;58.60;;;;;;1540258;76;1145;-55
2022/10/15 02:37:36;;;;;;;;;;;22.60;58.50;;;;;;1548061;75;767;-53
2022/10/15 02:39:38;;;;;;;;;;;22.60;58.40;;;;;;1594463;74;807;-52
2022/10/15 02:41:39;;;;;;;;;;;22.60;58.40;;;;;;1577925;74;1941;-56
2022/10/15 02:43:41;;;;;;;;;;;22.60;58.40;;;;;;1561128;74;1066;-56
2022/10/15 02:45:43;;;;;;;;;;;22.60;58.40;;;;;;1574245;74;1168;-56
2022/10/15 02:47:45;;;;;;;;;;;22.60;58.40;;;;;;1558490;74;681;-56
2022/10/15 02:49:47;;;;;;;;;;;22.60;58.40;;;;;;1579835;74;757;-54
2022/10/15 02:51:49;;;;;;;;;;;22.60;58.40;;;;;;1558300;74;803;-55
2022/10/15 02:53:51;;;;;;;;;;;22.60;58.40;;;;;;1562483;74;735;-55
2022/10/15 02:55:53;;;;;;;;;;;22.60;58.40;;;;;;1566764;74;1150;-56
2022/10/15 02:57:56;;;;;;;;;;;22.60;58.60;;;;;;1579254;74;756;-56
2022/10/15 02:59:58;;;;;;;;;;;22.50;58.50;;;;;;1583905;74;2446;-55
2022/10/15 03:02:00;;;;;;;;;;;22.70;58.20;;;;;;1560694;74;1944;-54
2022/10/15 03:04:02;;;;;;;;;;;22.70;57.80;;;;;;1579001;74;733;-56
2022/10/15 03:06:04;;;;;;;;;;;22.70;57.80;;;;;;1559037;74;1162;-53
2022/10/15 03:08:06;;;;;;;;;;;22.80;57.60;;;;;;1569516;74;839;-55
2022/10/15 03:10:08;;;;;;;;;;;22.80;57.50;;;;;;1556082;74;780;-54
2022/10/15 03:12:10;;;;;;;;;;;22.90;57.60;;;;;;1559209;74;832;-56
2022/10/15 03:14:12;;;;;;;;;;;22.80;57.30;;;;;;1578771;74;783;-56
2022/10/15 03:16:14;;;;;;;;;;;22.90;57.40;;;;;;1561660;74;1169;-56
2022/10/15 03:18:16;;;;;;;;;;;22.80;57.30;;;;;;1557449;74;778;-56
2022/10/15 03:20:18;;;;;;;;;;;22.80;57.20;;;;;;1553775;74;737;-55
2022/10/15 03:22:20;;;;;;;;;;;22.90;57.30;;;;;;1569406;74;1933;-55
2022/10/15 03:24:22;;;;;;;;;;;22.80;57.10;;;;;;1562508;74;789;-53
2022/10/15 03:26:24;;;;;;;;;;;22.90;57.20;;;;;;1560588;74;1234;-56
2022/10/15 03:28:25;;;;;;;;;;;22.90;57.20;;;;;;1575933;74;772;-56
2022/10/15 03:30:27;;;;;;;;;;;22.90;57.10;;;;;;1572000;74;726;-55
2022/10/15 03:32:29;;;;;;;;;;;22.90;57.30;;;;;;1570601;74;683;-56
2022/10/15 03:34:31;;;;;;;;;;;22.80;57.10;;;;;;1562171;74;764;-56
2022/10/15 03:36:33;;;;;;;;;;;22.90;57.20;;;;;;1554369;74;1070;-56
2022/10/15 03:38:35;;;;;;;;;;;22.90;57.20;;;;;;1570698;74;733;-57
2022/10/15 03:40:37;;;;;;;;;;;22.80;57.20;;;;;;1581088;74;780;-57
2022/10/15 03:42:39;;;;;;;;;;;22.90;57.10;;;;;;1573156;74;1937;-57
2022/10/15 03:44:40;;;;;;;;;;;23.00;57.00;;;;;;1580700;74;690;-57
2022/10/15 03:46:42;;;;;;;;;;;23.00;56.90;;;;;;1585729;74;1156;-57
2022/10/15 03:48:46;;;;;;;;;;;22.90;56.80;;;;;;1590917;74;763;-56
2022/10/15 03:50:48;;;;;;;;;;;22.90;56.80;;;;;;1575401;74;1881;-51
2022/10/15 03:52:50;;;;;;;;;;;22.90;57.00;;;;;;1575568;74;734;-56
2022/10/15 03:54:51;;;;;;;;;;;22.90;57.10;;;;;;1584487;74;1147;-56
2022/10/15 03:56:53;;;;;;;;;;;22.90;57.10;;;;;;1584203;74;754;-56
2022/10/15 03:58:55;;;;;;;;;;;22.90;57.10;;;;;;1590347;74;805;-56
2022/10/15 04:00:57;;;;;;;;;;;22.90;57.20;;;;;;1580530;74;845;-56
2022/10/15 04:02:59;;;;;;;;;;;22.90;57.30;;;;;;1585459;74;1931;-54
2022/10/15 04:05:01;;;;;;;;;;;22.80;57.30;;;;;;1585361;74;1163;-57
2022/10/15 04:07:03;;;;;;;;;;;22.80;57.40;;;;;;1586745;74;654;-56
2022/10/15 04:09:05;;;;;;;;;;;22.80;57.30;;;;;;1575187;74;807;-54
2022/10/15 04:11:06;;;;;;;;;;;22.80;57.20;;;;;;1568726;74;824;-56
2022/10/15 04:13:08;;;;;;;;;;;22.90;57.20;;;;;;1577822;74;776;-56
2022/10/15 04:15:10;;;;;;;;;;;22.90;57.10;;;;;;1585053;74;1107;-53
2022/10/15 04:17:12;;;;;;;;;;;22.90;57.10;;;;;;1581484;74;780;-54
2022/10/15 04:19:14;;;;;;;;;;;22.90;57.20;;;;;;1582533;74;751;-52
2022/10/15 04:21:16;;;;;;;;;;;22.80;57.10;;;;;;1583279;74;819;-53
2022/10/15 04:23:18;;;;;;;;;;;22.90;57.20;;;;;;1577315;74;1927;-57
2022/10/15 04:25:20;;;;;;;;;;;22.80;57.10;;;;;;1579578;74;1082;-56
2022/10/15 04:27:22;;;;;;;;;;;22.80;57.10;;;;;;1579179;74;730;-57
2022/10/15 04:29:24;;;;;;;;;;;22.90;57.30;;;;;;1585040;74;814;-55
2022/10/15 04:31:26;;;;;;;;;;;22.80;57.10;;;;;;1581744;74;665;-57
2022/10/15 04:33:27;;;;;;;;;;;22.90;57.40;;;;;;1578001;74;694;-56
2022/10/15 04:35:30;;;;;;;;;;;22.80;57.30;;;;;;1575203;74;1142;-54
2022/10/15 04:37:35;;;;;;;;;;;22.80;57.50;;;;;;1581818;74;819;-52
2022/10/15 04:39:37;;;;;;;;;;;22.80;57.60;;;;;;1580643;74;737;-57
2022/10/15 04:41:39;;;;;;;;;;;22.70;57.50;;;;;;1568236;74;1916;-56
2022/10/15 04:43:41;;;;;;;;;;;22.70;57.60;;;;;;1584636;74;1271;-56
2022/10/15 04:45:43;;;;;;;;;;;22.80;57.40;;;;;;1592712;74;1187;-54
2022/10/15 04:47:45;;;;;;;;;;;22.80;57.40;;;;;;1580687;74;779;-56
2022/10/15 04:49:47;;;;;;;;;;;22.80;57.50;;;;;;1585776;74;682;-53
2022/10/15 04:51:48;;;;;;;;;;;22.70;57.40;;;;;;1588697;74;653;-58
2022/10/15 04:53:50;;;;;;;;;;;22.80;57.80;;;;;;1594603;74;722;-53
2022/10/15 04:55:52;;;;;;;;;;;22.80;57.70;;;;;;1591263;74;1128;-58
2022/10/15 04:57:54;;;;;;;;;;;22.80;57.40;;;;;;1582183;74;717;-57
2022/10/15 04:59:56;;;;;;;;;;;22.90;57.40;;;;;;1592831;74;704;-58
2022/10/15 05:01:58;;;;;;;;;;;22.90;57.40;;;;;;1592535;74;1907;-57
2022/10/15 05:04:00;;;;;;;;;;;22.80;57.40;;;;;;1582407;74;742;-57
2022/10/15 05:06:05;;;;;;;;;;;22.70;57.30;;;;;;1591032;74;1139;-55
2022/10/15 05:08:07;;;;;;;;;;;22.70;57.30;;;;;;1580491;74;744;-58
2022/10/15 05:10:09;;;;;;;;;;;22.70;57.50;;;;;;1579850;73;718;-55
2022/10/15 05:12:11;;;;;;;;;;;22.60;57.30;;;;;;1586576;73;759;-57
2022/10/15 05:14:13;;;;;;;;;;;22.70;57.40;;;;;;1588682;74;818;-55
2022/10/15 05:16:16;;;;;;;;;;;22.60;57.30;;;;;;1577853;74;1085;-58
2022/10/15 05:18:18;;;;;;;;;;;22.60;57.30;;;;;;1578771;74;783;-58
2022/10/15 05:20:20;;;;;;;;;;;22.70;57.50;;;;;;1585268;74;846;-58
2022/10/15 05:22:22;;;;;;;;;;;22.60;57.40;;;;;;1576394;74;1940;-58
2022/10/15 05:24:24;;;;;;;;;;;22.70;57.50;;;;;;1572132;74;775;-59
2022/10/15 05:26:26;;;;;;;;;;;22.60;57.40;;;;;;1582847;74;1193;-60
2022/10/15 05:28:28;;;;;;;;;;;22.60;57.40;;;;;;1588459;74;803;-59
2022/10/15 05:30:30;;;;;;;;;;;22.70;57.20;;;;;;1576569;74;767;-57
2022/10/15 05:32:32;;;;;;;;;;;22.70;57.10;;;;;;1572092;74;776;-59
2022/10/15 05:34:34;;;;;;;;;;;22.70;57.20;;;;;;1586872;74;747;-58
2022/10/15 05:36:36;;;;;;;;;;;22.70;57.10;;;;;;1583826;74;1126;-58
2022/10/15 05:38:38;;;;;;;;;;;22.60;57.10;;;;;;1588862;74;770;-57
2022/10/15 05:40:40;;;;;;;;;;;22.70;57.20;;;;;;1574248;74;827;-59
2022/10/15 05:42:42;;;;;;;;;;;22.70;57.10;;;;;;1579886;74;1949;-58
2022/10/15 05:44:44;;;;;;;;;;;22.70;57.10;;;;;;1588242;74;1119;-58
2022/10/15 05:46:46;;;;;;;;;;;22.60;57.10;;;;;;1583943;74;1205;-58
2022/10/15 05:48:50;;;;;;;;;;;22.70;57.10;;;;;;1587007;74;727;-59
2022/10/15 05:50:52;;;;;;;;;;;22.60;57.00;;;;;;1587065;74;794;-58
2022/10/15 05:52:54;;;;;;;;;;;22.70;57.10;;;;;;1582427;74;790;-59
2022/10/15 05:54:56;;;;;;;;;;;22.60;57.10;;;;;;1584424;74;1129;-59
2022/10/15 05:56:58;;;;;;;;;;;22.60;57.10;;;;;;1583670;74;717;-58
2022/10/15 05:59:00;;;;;;;;;;;22.60;57.10;;;;;;1584925;74;749;-59
2022/10/15 06:01:02;;;;;;;;;;;22.60;57.10;;;;;;1580212;74;826;-58
2022/10/15 06:03:04;;;;;;;;;;;22.60;57.10;;;;;;1574329;74;1928;-59
2022/10/15 06:05:06;;;;;;;;;;;22.60;57.10;;;;;;1580068;74;1119;-59
2022/10/15 06:07:09;;;;;;;;;;;22.60;57.10;;;;;;1585263;74;783;-59
2022/10/15 06:09:11;;;;;;;;;;;22.60;57.10;;;;;;1584541;74;745;-59
2022/10/15 06:11:13;;;;;;;;;;;22.60;57.00;;;;;;1573020;74;804;-59
2022/10/15 06:13:15;;;;;;;;;;;22.60;57.10;;;;;;1573396;74;778;-59
2022/10/15 06:15:17;;;;;;;;;;;22.60;57.00;;;;;;1574133;74;1159;-58
2022/10/15 06:17:19;;;;;;;;;;;22.70;57.10;;;;;;1576145;74;750;-58
2022/10/15 06:19:21;;;;;;;;;;;22.70;57.10;;;;;;1587584;74;758;-58
2022/10/15 06:21:22;;;;;;;;;;;22.60;57.00;;;;;;1586930;74;838;-57
2022/10/15 06:23:24;;;;;;;;;;;22.70;57.00;;;;;;1581651;74;1907;-58
2022/10/15 06:25:26;;;;;;;;;;;22.70;56.90;;;;;;1576434;74;1159;-54
2022/10/15 06:27:29;;;;;;;;;;;22.70;57.00;;;;;;1585091;74;737;-58
2022/10/15 06:29:31;;;;;;;;;;;22.70;57.00;;;;;;1586434;74;791;-57
2022/10/15 06:31:32;;;;;;;;;;;22.70;56.90;;;;;;1572835;74;670;-54
2022/10/15 06:33:35;;;;;;;;;;;22.70;56.90;;;;;;1580028;74;755;-58
2022/10/15 06:35:36;;;;;;;;;;;22.70;56.90;;;;;;1587746;74;1204;-58
2022/10/15 06:37:38;;;;;;;;;;;22.70;56.90;;;;;;1577686;74;813;-59
2022/10/15 06:39:40;;;;;;;;;;;22.70;57.00;;;;;;1586188;74;887;-58
2022/10/15 06:41:42;;;;;;;;;;;22.70;56.90;;;;;;1585869;74;733;-59
2022/10/15 06:43:44;;;;;;;;;;;22.80;56.80;;;;;;1585893;73;1927;-58
2022/10/15 06:45:47;;;;;;;;;;;22.70;56.80;;;;;;1582667;73;1183;-58
2022/10/15 06:47:48;;;;;;;;;;;22.70;56.90;;;;;;1581687;73;772;-58
2022/10/15 06:49:50;;;;;;;;;;;22.70;56.90;;;;;;1586629;73;678;-54
2022/10/15 06:51:52;;;;;;;;;;;22.60;56.80;;;;;;1582014;73;759;-55
2022/10/15 06:53:54;;;;;;;;;;;22.70;56.80;;;;;;1589421;73;794;-57
2022/10/15 06:55:59;;;;;;;;;;;22.80;56.70;;;;;;1588242;73;1136;-54
2022/10/15 06:58:01;;;;;;;;;;;22.70;56.70;;;;;;1585548;73;903;-58
2022/10/15 07:00:04;;;;;;;;;;;22.70;56.60;;;;;;1585267;73;669;-58
2022/10/15 07:02:05;;;;;;;;;;;22.70;56.60;;;;;;1590601;73;699;-58
2022/10/15 07:04:07;;;;;;;;;;;22.70;56.60;;;;;;1588880;73;1937;-56
2022/10/15 07:06:09;;;;;;;;;;;22.80;56.50;;;;;;1578833;73;1148;-55
2022/10/15 07:08:11;;;;;;;;;;;22.80;56.50;;;;;;1593652;74;879;-58
2022/10/15 07:10:13;;;;;;;;;;;22.70;56.60;;;;;;1577601;74;805;-59
2022/10/15 07:12:15;;;;;;;;;;;22.70;56.60;;;;;;1590992;74;728;-59
2022/10/15 07:14:17;;;;;;;;;;;22.70;56.50;;;;;;1589981;74;729;-58
2022/10/15 07:16:19;;;;;;;;;;;22.70;56.50;;;;;;1579958;74;1124;-58
2022/10/15 07:18:21;;;;;;;;;;;22.70;56.50;;;;;;1577393;74;779;-59
2022/10/15 07:20:23;;;;;;;;;;;22.70;56.50;;;;;;1571424;74;725;-59
2022/10/15 07:22:25;;;;;;;;;;;22.80;56.50;;;;;;1587157;74;698;-58
2022/10/15 07:24:27;;;;;;;;;;;22.70;56.50;;;;;;1585648;73;1937;-54
2022/10/15 07:26:29;;;;;;;;;;;22.70;56.50;;;;;;1592857;74;1167;-55
2022/10/15 07:28:31;;;;;;;;;;;22.80;56.50;;;;;;1585338;74;785;-58
2022/10/15 07:30:33;;;;;;;;;;;22.70;56.50;;;;;;1575156;74;799;-55
2022/10/15 07:32:35;;;;;;;;;;;22.80;56.50;;;;;;1579567;74;711;-57
2022/10/15 07:34:37;;;;;;;;;;;22.70;56.40;;;;;;1583420;74;768;-59
2022/10/15 07:36:39;;;;;;;;;;;22.80;56.40;;;;;;1578287;74;1206;-58
2022/10/15 07:38:41;;;;;;;;;;;22.80;56.40;;;;;;1588717;74;783;-58
2022/10/15 07:40:43;;;;;;;;;;;22.80;56.40;;;;;;1578968;74;709;-59
2022/10/15 07:42:45;;;;;;;;;;;22.80;56.30;;;;;;1583778;74;1911;-59
2022/10/15 07:44:47;;;;;;;;;;;22.80;56.30;;;;;;1548493;76;1214;-59
2022/10/15 07:46:49;;;;;;;;;;;22.80;56.30;;;;;;1579863;74;1208;-59
2022/10/15 07:48:50;;;;;;;;;;;22.80;56.30;;;;;;1583949;74;728;-60
2022/10/15 07:50:59;;;;;;;;;;;22.80;56.30;;;;;;1583696;74;630;-59
2022/10/15 07:53:01;;;;;;;;;;;22.80;56.30;;;;;;1588732;74;794;-60
2022/10/15 07:55:03;;;;;;;;;;;22.80;56.30;;;;;;1571918;74;1102;-59
2022/10/15 07:57:09;;;;;;;;;;;22.80;56.30;;;;;;1581540;74;786;-59
2022/10/15 07:59:08;;;;;;;;;;;22.80;56.30;;;;;;1576177;74;1840;-58
2022/10/15 08:01:10;;;;;;;;;;;22.80;56.30;;;;;;1581103;74;712;-60
2022/10/15 08:03:12;;;;;;;;;;;22.80;56.30;;;;;;1576300;74;1929;-59
2022/10/15 08:05:14;;;;;;;;;;;22.80;56.20;;;;;;1578184;74;1152;-60
2022/10/15 08:07:16;;;;;;;;;;;22.80;56.30;;;;;;1570313;74;777;-60
2022/10/15 08:09:18;;;;;;;;;;;22.70;56.40;;;;;;1566969;74;741;-60
2022/10/15 08:11:20;;;;;;;;;;;22.70;56.50;;;;;;1575756;74;767;-58
2022/10/15 08:13:22;;;;;;;;;;;22.70;56.50;;;;;;1571269;74;838;-59
2022/10/15 08:15:24;;;;;;;;;;;22.70;56.50;;;;;;1584800;74;1124;-59
2022/10/15 08:17:26;;;;;;;;;;;22.70;56.50;;;;;;1582844;74;802;-59
2022/10/15 08:19:27;;;;;;;;;;;22.70;56.50;;;;;;1581260;75;703;-59
2022/10/15 08:21:29;;;;;;;;;;;22.70;56.50;;;;;;1571516;74;717;-59
2022/10/15 08:23:31;;;;;;;;;;;22.70;56.50;;;;;;1563079;74;1958;-59
2022/10/15 08:25:34;;;;;;;;;;;22.70;56.50;;;;;;1570860;74;1147;-59
2022/10/15 08:27:36;;;;;;;;;;;22.80;56.40;;;;;;1571647;74;769;-57
2022/10/15 08:29:38;;;;;;;;;;;22.80;56.30;;;;;;1577061;74;832;-58
2022/10/15 08:31:40;;;;;;;;;;;22.80;56.40;;;;;;1565888;74;720;-59
2022/10/15 08:33:43;;;;;;;;;;;22.70;56.50;;;;;;1588870;74;747;-59
2022/10/15 08:35:45;;;;;;;;;;;22.70;56.60;;;;;;1569553;74;1129;-57
2022/10/15 08:37:46;;;;;;;;;;;22.80;56.50;;;;;;1582138;74;678;-60
2022/10/15 08:39:48;;;;;;;;;;;22.80;56.50;;;;;;1583525;74;762;-58
2022/10/15 08:41:55;;;;;;;;;;;22.70;56.80;;;;;;1574125;74;779;-58
2022/10/15 08:43:57;;;;;;;;;;;22.70;56.90;;;;;;1574933;74;1943;-58
2022/10/15 08:45:59;;;;;;;;;;;22.80;56.50;;;;;;1587160;74;1112;-59
2022/10/15 08:48:03;;;;;;;;;;;22.80;56.50;;;;;;1587108;74;771;-58
2022/10/15 08:50:23;;;;;;;;;;;22.80;56.40;;;;;;1570904;74;1823;-57
2022/10/15 08:52:25;;;;;;;;;;;22.70;56.40;;;;;;1576462;74;897;-58
2022/10/15 08:54:27;;;;;;;;;;;22.70;56.60;;;;;;1570156;74;727;-58
2022/10/15 08:56:35;;;;;;;;;;;22.60;56.80;;;;;;1583336;74;1187;-57
2022/10/15 08:58:57;;;;;;;;;;;22.50;57.00;;;;;;1584687;74;721;-57
2022/10/15 09:01:03;;;;;;;;;;;22.50;57.20;;;;;;1578747;74;702;-57
2022/10/15 09:03:07;;;;;;;;;;;22.50;57.30;;;;;;1578617;74;1925;-57
2022/10/15 09:05:16;;;;;;;;;;;22.40;57.40;;;;;;1584219;74;1845;-58
2022/10/15 09:07:35;;;;;;;;;;;22.30;57.60;;;;;;1582372;74;682;-57
2022/10/15 09:09:41;;;;;;;;;;;22.40;57.60;;;;;;1581862;74;689;-57
2022/10/15 09:11:57;;;;;;;;;;;22.30;57.80;;;;;;1584458;74;741;-57
2022/10/15 09:13:59;;;;;;;;;;;22.30;57.80;;;;;;1579272;74;750;-57
2022/10/15 09:16:05;;;;;;;;;;;22.20;57.80;;;;;;1582586;73;1082;-57
2022/10/15 09:18:08;;;;;;;;;;;22.20;57.80;;;;;;1543393;75;747;-57
2022/10/15 09:20:12;;;;;;;;;;;22.30;58.10;;;;;;1577006;73;745;-57
2022/10/15 09:22:14;;;;;;;;;;;22.20;57.90;;;;;;1576342;73;1233;-57
2022/10/15 09:24:24;;;;;;;;;;;22.20;58.00;;;;;;1583369;73;1923;-56
2022/10/15 09:26:27;;;;;;;;;;;22.20;58.00;;;;;;1586110;73;1120;-57
2022/10/15 09:28:31;;;;;;;;;;;22.20;58.10;;;;;;1585596;73;1784;-57
2022/10/15 09:30:34;;;;;;;;;;;22.10;58.10;;;;;;1582427;73;844;-56
2022/10/15 09:32:44;;;;;;;;;;;22.10;58.10;;;;;;1581394;73;976;-57
2022/10/15 09:34:48;;;;;;;;;;;22.10;58.20;;;;;;1579982;73;854;-57
2022/10/15 09:36:50;;;;;;;;;;;22.10;58.20;;;;;;1575577;73;746;-56
2022/10/15 09:38:53;;;;;;;;;;;22.10;58.20;;;;;;1582111;73;659;-57
2022/10/15 09:41:15;;;;;;;;;;;22.00;58.10;;;;;;1581188;73;772;-57
2022/10/15 09:43:19;;;;;;;;;;;22.10;58.20;;;;;;1522849;76;1053;-54
2022/10/15 09:45:22;;;;;;;;;;;22.00;58.20;;;;;;1524583;76;1166;-56
2022/10/15 09:47:26;;;;;;;;;;;22.10;58.30;;;;;;1530543;76;1138;-54
2022/10/15 09:49:28;;;;;;;;;;;22.00;58.20;;;;;;1571605;73;1144;-56
2022/10/15 09:51:34;;;;;;;;;;;22.10;58.40;;;;;;1583588;73;729;-57
2022/10/15 09:53:46;;;;;;;;;;;22.10;58.40;;;;;;1583537;73;1972;-56
2022/10/15 09:55:49;;;;;;;;;;;22.00;58.30;;;;;;1580053;73;1188;-56
2022/10/15 09:57:51;;;;;;;;;;;22.10;58.40;;;;;;1584917;73;704;-57
2022/10/15 09:59:54;;;;;;;;;;;22.10;58.40;;;;;;1570237;74;698;-57
2022/10/15 10:02:00;;;;;;;;;;;22.10;58.40;;;;;;1582006;74;1691;-57
2022/10/15 10:04:12;;;;;;;;;;;22.00;58.30;;;;;;1573971;74;1923;-57
2022/10/15 10:06:14;;;;;;;;;;;22.10;58.70;;;;;;1572518;74;1140;-57
2022/10/15 10:08:21;;;;;;;;;;;22.00;58.60;;;;;;1572989;74;772;-57
2022/10/15 10:10:25;;;;;;;;;;;22.10;58.70;;;;;;1572029;74;691;-57
2022/10/15 10:12:35;;;;;;;;;;;22.00;58.70;;;;;;1585969;74;783;-56
2022/10/15 10:14:42;;;;;;;;;;;22.10;58.80;;;;;;1584057;74;686;-56
2022/10/15 10:17:02;;;;;;;;;;;22.00;58.70;;;;;;1572654;74;1120;-57
2022/10/15 10:19:06;;;;;;;;;;;22.00;58.70;;;;;;1571803;74;778;-57
2022/10/15 10:21:15;;;;;;;;;;;22.00;58.70;;;;;;1576944;74;1816;-56
2022/10/15 10:23:23;;;;;;;;;;;22.00;58.70;;;;;;1573825;74;1437;-57
2022/10/15 10:25:43;;;;;;;;;;;22.00;58.70;;;;;;1580169;73;1953;-58
2022/10/15 10:27:45;;;;;;;;;;;22.00;58.70;;;;;;1579710;73;750;-57
2022/10/15 10:29:48;;;;;;;;;;;22.00;58.70;;;;;;1585819;73;908;-57
2022/10/15 10:31:51;;;;;;;;;;;22.00;58.70;;;;;;1583323;73;742;-55
2022/10/15 10:33:52;;;;;;;;;;;22.00;58.70;;;;;;1584224;73;925;-57
2022/10/15 10:35:54;;;;;;;;;;;21.90;58.70;;;;;;1581117;73;1152;-56
2022/10/15 10:37:56;;;;;;;;;;;22.00;58.70;;;;;;1578527;73;774;-57
2022/10/15 10:39:59;;;;;;;;;;;22.00;58.70;;;;;;1580487;73;752;-56
2022/10/15 10:42:01;;;;;;;;;;;22.00;58.70;;;;;;1582772;73;744;-57
2022/10/15 10:44:03;;;;;;;;;;;22.00;58.70;;;;;;1578608;73;1928;-56
2022/10/15 10:46:15;;;;;;;;;;;22.00;58.70;;;;;;1575510;74;1140;-57
2022/10/15 10:48:18;;;;;;;;;;;22.00;58.70;;;;;;1579557;73;1057;-57
2022/10/15 10:50:27;;;;;;;;;;;22.00;58.70;;;;;;1579262;74;714;-57
2022/10/15 10:52:33;;;;;;;;;;;22.10;58.90;;;;;;1579527;74;725;-57
2022/10/15 10:54:35;;;;;;;;;;;22.30;58.50;;;;;;1575372;74;916;-56
2022/10/15 10:56:39;;;;;;;;;;;22.30;58.80;;;;;;1583044;74;1146;-56
2022/10/15 10:58:42;;;;;;;;;;;22.30;58.40;;;;;;1587412;74;1807;-57
2022/10/15 11:00:55;;;;;;;;;;;22.40;58.10;;;;;;1580244;74;725;-57
2022/10/15 11:02:54;;;;;;;;;;;22.50;58.20;;;;;;1573015;74;1007;-56
2022/10/15 11:04:56;;;;;;;;;;;22.50;58.10;;;;;;1586873;74;1918;-56
2022/10/15 11:06:59;;;;;;;;;;;22.60;58.00;;;;;;1571347;74;733;-52
2022/10/15 11:09:12;;;;;;;;;;;22.60;58.00;;;;;;1587709;74;820;-57
2022/10/15 11:11:21;;;;;;;;;;;22.60;57.80;;;;;;1579762;74;2231;-57
2022/10/15 11:13:25;;;;;;;;;;;22.60;57.50;;;;;;1590223;74;728;-57
2022/10/15 11:15:31;;;;;;;;;;;22.80;57.50;;;;;;1575567;74;1111;-57
2022/10/15 11:17:41;;;;;;;;;;;22.70;57.50;;;;;;1573100;74;1915;-57
2022/10/15 11:19:54;;;;;;;;;;;22.70;57.40;;;;;;1566000;74;1954;-57
2022/10/15 11:22:10;;;;;;;;;;;22.70;57.30;;;;;;1581253;74;767;-57
2022/10/15 11:24:16;;;;;;;;;;;22.70;57.20;;;;;;1586245;74;1941;-56
2022/10/15 11:26:20;;;;;;;;;;;22.80;57.20;;;;;;1576136;74;1828;-57
2022/10/15 11:28:40;;;;;;;;;;;22.70;57.10;;;;;;1519789;75;1002;-56
2022/10/15 11:30:43;;;;;;;;;;;22.80;57.00;;;;;;1575733;74;717;-52
2022/10/15 11:33:05;;;;;;;;;;;22.70;56.90;;;;;;1587997;74;1871;-57
2022/10/15 11:35:08;;;;;;;;;;;22.80;56.80;;;;;;1564518;74;1889;-56
2022/10/15 11:37:12;;;;;;;;;;;22.70;56.90;;;;;;1575878;74;741;-55
2022/10/15 11:39:15;;;;;;;;;;;22.80;56.90;;;;;;1579040;74;2003;-57
2022/10/15 11:41:22;;;;;;;;;;;22.70;56.80;;;;;;1571597;74;1537;-56
2022/10/15 11:43:44;;;;;;;;;;;22.80;56.70;;;;;;1550565;74;1127;-58
2022/10/15 11:45:56;;;;;;;;;;;22.90;56.80;;;;;;1585666;74;1905;-58
2022/10/15 11:48:12;;;;;;;;;;;22.80;56.60;;;;;;1557461;74;1749;-59
2022/10/15 11:50:18;;;;;;;;;;;22.90;56.70;;;;;;1587672;74;678;-59
2022/10/15 11:52:31;;;;;;;;;;;22.80;56.60;;;;;;1576747;74;694;-58
2022/10/15 11:54:43;;;;;;;;;;;22.80;56.60;;;;;;1583528;74;1817;-58
2022/10/15 11:56:48;;;;;;;;;;;22.80;56.60;;;;;;1573495;73;1120;-59
2022/10/15 11:58:51;;;;;;;;;;;22.80;56.50;;;;;;1564984;73;750;-58
2022/10/15 12:00:53;;;;;;;;;;;22.90;56.50;;;;;;1585086;74;772;-58
2022/10/15 12:02:55;;;;;;;;;;;22.80;56.40;;;;;;1586356;74;790;-57
2022/10/15 12:05:01;;;;;;;;;;;22.80;56.30;;;;;;1580737;74;1926;-59
2022/10/15 12:07:04;;;;;;;;;;;22.90;56.40;;;;;;1550372;74;1470;-58
2022/10/15 12:09:06;;;;;;;;;;;22.90;56.30;;;;;;1539163;75;717;-55
2022/10/15 12:11:19;;;;;;;;;;;22.90;56.30;;;;;;1543925;75;731;-55
2022/10/15 12:13:39;;;;;;;;;;;22.90;56.30;;;;;;1534865;75;681;-58
2022/10/15 12:15:58;;;;;;;;;;;22.90;56.30;;;;;;1543783;75;1116;-58
2022/10/15 12:18:07;;;;;;;;;;;22.90;56.30;;;;;;1541836;75;1939;-58
2022/10/15 12:20:13;;;;;;;;;;;22.90;56.40;;;;;;1545083;75;2061;-57